Holton, Kansas
Current Conditions -  °F | °C
As of 3:53 AM on Friday 31 Oct 2014 (Local Time) from KTOP Reporting Station
Overcast Overcast  
Wind Chill: 37°   Ceiling: 2300
Heat Index: 45°   Visibility: 10mi
Dew Point: 36°   Wind: 20mph
Humidity: 71%   Direction: 10°N
Pressure: 30.36"   Gusts: 31mph
Location:  39.47°N, 95.74°W
Report Text: KTOP 310853Z AUTO 01017G27KT 10SM OVC023 07/02 A3036 RMK AO2 PK WND 01029/0813 SLP279 T00720022 53025 $
Loading
Personal Weather Stations






























Interactive Weather Map
Tropical Storm Tracking
New forecast layout! Learn more

10-Day Weather Forecast

Advertisements
Track Severe Weather on mobile